createdAt,value
2023-03-24T00:02:29.068Z,13.09
2023-03-24T00:05:18.963Z,13.20
2023-03-24T00:08:06.573Z,13.05
2023-03-24T00:10:53.337Z,13.07
2023-03-24T00:13:40.950Z,12.84
2023-03-24T00:16:27.885Z,12.98
2023-03-24T00:19:16.327Z,12.99
2023-03-24T00:22:02.819Z,13.11
2023-03-24T00:24:49.731Z,13.04
2023-03-24T00:27:37.298Z,12.95
2023-03-24T00:30:25.425Z,12.98
2023-03-24T00:33:13.531Z,12.86
2023-03-24T00:36:02.787Z,12.63
2023-03-24T00:38:52.432Z,12.85
2023-03-24T00:41:48.344Z,12.79
2023-03-24T00:44:58.123Z,12.72
2023-03-24T00:47:46.477Z,12.61
2023-03-24T00:50:35.409Z,12.58
2023-03-24T00:53:26.326Z,12.54
2023-03-24T00:56:17.758Z,12.45
2023-03-24T00:59:06.885Z,12.45
2023-03-24T01:01:53.412Z,12.45
2023-03-24T01:04:42.341Z,12.36
2023-03-24T01:07:31.239Z,12.57
2023-03-24T01:10:21.712Z,12.61
2023-03-24T01:13:08.367Z,12.64
2023-03-24T01:15:57.499Z,12.84
2023-03-24T01:18:44.522Z,12.87
2023-03-24T01:21:31.973Z,12.93
2023-03-24T01:24:20.253Z,13.01
2023-03-24T01:27:15.047Z,13.09
2023-03-24T01:30:04.873Z,13.19
2023-03-24T01:32:53.850Z,13.19
2023-03-24T01:35:42.555Z,13.36
2023-03-24T01:38:31.014Z,13.37
2023-03-24T01:41:21.258Z,13.40
2023-03-24T01:44:35.168Z,13.50
2023-03-24T01:47:23.414Z,13.54
2023-03-24T01:50:10.780Z,13.52
2023-03-24T01:52:57.614Z,13.57
2023-03-24T01:55:46.638Z,13.48
2023-03-24T01:58:37.833Z,13.51
2023-03-24T02:01:37.115Z,13.47
2023-03-24T02:04:39.826Z,13.40
2023-03-24T02:07:34.580Z,13.27
2023-03-24T02:10:23.141Z,13.38
2023-03-24T02:13:10.411Z,13.25
2023-03-24T02:16:12.700Z,13.22
2023-03-24T02:19:25.136Z,13.24
2023-03-24T02:22:44.341Z,13.17
2023-03-24T02:25:51.770Z,13.14
2023-03-24T02:28:48.588Z,13.28
2023-03-24T02:31:59.045Z,13.27
2023-03-24T02:35:23.343Z,13.52
2023-03-24T02:38:39.276Z,13.53
2023-03-24T02:41:34.618Z,13.58
2023-03-24T02:44:27.041Z,13.66
2023-03-24T02:47:21.417Z,13.61
2023-03-24T02:50:14.842Z,13.73
2023-03-24T02:53:10.275Z,13.83
2023-03-24T02:56:13.942Z,13.85
2023-03-24T02:59:05.922Z,13.87
2023-03-24T03:02:00.853Z,13.90
2023-03-24T03:05:06.160Z,13.94
2023-03-24T03:07:56.940Z,13.96
2023-03-24T03:10:47.695Z,14.03
2023-03-24T03:13:38.163Z,14.10
2023-03-24T03:16:38.362Z,14.05
2023-03-24T03:19:31.754Z,14.15
2023-03-24T03:22:22.131Z,13.84
2023-03-24T03:25:10.883Z,13.73
2023-03-24T03:28:01.175Z,13.85
2023-03-24T03:30:52.523Z,13.92
2023-03-24T03:33:49.292Z,14.05
2023-03-24T03:36:42.163Z,14.11
2023-03-24T03:39:32.156Z,13.94
2023-03-24T03:42:22.118Z,13.98
2023-03-24T03:45:11.148Z,14.07
2023-03-24T03:47:58.157Z,13.96
2023-03-24T03:50:47.151Z,13.94
2023-03-24T03:53:40.492Z,14.07
2023-03-24T03:56:29.752Z,14.11
2023-03-24T03:59:45.806Z,13.84
2023-03-24T04:02:53.564Z,13.91
2023-03-24T04:05:46.378Z,13.96
2023-03-24T04:08:49.069Z,14.04
2023-03-24T04:12:02.119Z,14.03
2023-03-24T04:15:12.585Z,13.93
2023-03-24T04:18:31.729Z,13.91
2023-03-24T04:21:38.562Z,13.67
2023-03-24T04:24:40.285Z,13.73
2023-03-24T04:27:40.124Z,13.83
2023-03-24T04:30:34.260Z,13.72
2023-03-24T04:33:30.392Z,13.83
2023-03-24T04:36:23.576Z,13.81
2023-03-24T04:39:39.187Z,13.68
2023-03-24T04:42:37.090Z,13.72
2023-03-24T04:45:25.857Z,13.81
2023-03-24T04:48:26.563Z,13.85
2023-03-24T04:51:34.218Z,13.76
2023-03-24T04:54:25.836Z,13.62
2023-03-24T04:57:20.016Z,13.58
2023-03-24T05:00:12.848Z,13.76
2023-03-24T05:03:00.707Z,13.74
2023-03-24T05:05:49.737Z,13.75
2023-03-24T05:08:36.259Z,13.84
2023-03-24T05:11:23.071Z,13.80
2023-03-24T05:14:21.392Z,13.86
2023-03-24T05:17:08.890Z,14.03
2023-03-24T05:19:55.528Z,13.90
2023-03-24T05:22:42.544Z,14.02
2023-03-24T05:25:29.837Z,13.90
2023-03-24T05:28:16.841Z,14.07
2023-03-24T05:31:05.612Z,14.07
2023-03-24T05:34:05.308Z,14.16
2023-03-24T05:36:58.220Z,14.25
2023-03-24T05:39:45.382Z,14.18
2023-03-24T05:42:49.885Z,14.32
2023-03-24T05:45:36.982Z,14.23
2023-03-24T05:48:26.018Z,14.29
2023-03-24T05:51:27.481Z,14.37
2023-03-24T05:54:22.397Z,14.56
2023-03-24T05:57:14.302Z,14.52
2023-03-24T06:00:18.564Z,14.63
2023-03-24T06:03:14.160Z,14.50
2023-03-24T06:06:08.152Z,14.63
2023-03-24T06:08:55.465Z,14.64
2023-03-24T06:11:44.730Z,14.50
2023-03-24T06:14:31.704Z,14.66
2023-03-24T06:17:28.745Z,14.51
2023-03-24T06:20:18.530Z,14.65
2023-03-24T06:23:17.564Z,14.87
2023-03-24T06:26:23.022Z,14.84
2023-03-24T06:29:18.018Z,14.93
2023-03-24T06:32:06.750Z,15.05
2023-03-24T06:35:00.175Z,14.84
2023-03-24T06:38:07.563Z,15.09
2023-03-24T06:41:01.311Z,15.16
2023-03-24T06:43:48.371Z,15.33
2023-03-24T06:46:35.279Z,15.45
2023-03-24T06:49:22.157Z,15.62
2023-03-24T06:52:09.156Z,15.64
2023-03-24T06:54:59.513Z,15.46
2023-03-24T06:57:49.105Z,15.66
2023-03-24T07:00:56.033Z,15.29
2023-03-24T07:03:46.279Z,15.47
2023-03-24T07:06:43.147Z,15.47
2023-03-24T07:09:38.975Z,15.44
2023-03-24T07:12:25.839Z,15.63
2023-03-24T07:15:14.240Z,15.45
2023-03-24T07:18:02.159Z,15.80
2023-03-24T07:20:55.509Z,15.88
2023-03-24T07:23:42.939Z,16.02
2023-03-24T07:26:32.873Z,15.96
2023-03-24T07:29:32.157Z,16.17
2023-03-24T07:32:39.707Z,16.24
2023-03-24T07:35:27.202Z,16.31
2023-03-24T07:38:14.188Z,16.45
2023-03-24T07:41:01.122Z,16.73
2023-03-24T07:43:51.743Z,16.96
2023-03-24T07:46:44.608Z,17.27
2023-03-24T07:49:32.885Z,17.43
2023-03-24T07:52:26.317Z,17.79
2023-03-24T07:55:15.846Z,17.78
2023-03-24T07:58:25.632Z,17.88
2023-03-24T08:01:32.938Z,17.48
2023-03-24T08:04:22.798Z,17.28
2023-03-24T08:07:20.161Z,17.24
2023-03-24T08:10:08.044Z,17.30
2023-03-24T08:12:55.082Z,16.76
2023-03-24T08:15:41.525Z,16.85
2023-03-24T08:18:28.429Z,17.06
2023-03-24T08:21:15.686Z,16.47
2023-03-24T08:24:03.865Z,16.36
2023-03-24T08:26:53.036Z,16.17
2023-03-24T08:29:40.415Z,16.08
2023-03-24T08:32:33.180Z,16.20
2023-03-24T08:35:22.600Z,16.15
2023-03-24T08:38:11.751Z,16.27
2023-03-24T08:41:02.804Z,16.12
2023-03-24T08:43:49.788Z,15.83
2023-03-24T08:46:36.368Z,16.00
2023-03-24T08:49:23.188Z,15.75
2023-03-24T08:52:10.034Z,16.09
2023-03-24T08:54:56.900Z,16.09
2023-03-24T08:57:45.851Z,16.18
2023-03-24T09:00:33.509Z,16.14
2023-03-24T09:03:24.138Z,16.19
2023-03-24T09:06:10.881Z,16.41
2023-03-24T09:08:57.878Z,16.30
2023-03-24T09:11:44.733Z,16.56
2023-03-24T09:14:32.935Z,16.38
2023-03-24T09:17:20.039Z,16.39
2023-03-24T09:20:08.551Z,16.44
2023-03-24T09:22:55.965Z,16.64
2023-03-24T09:25:42.882Z,16.74
2023-03-24T09:28:29.846Z,16.85
2023-03-24T09:31:18.070Z,17.15
2023-03-24T09:34:05.090Z,17.21
2023-03-24T09:36:51.618Z,17.12
2023-03-24T09:39:38.463Z,16.81
2023-03-24T09:42:27.878Z,17.12
2023-03-24T09:45:19.441Z,17.14
2023-03-24T09:48:13.841Z,17.48
2023-03-24T09:51:06.006Z,17.42
2023-03-24T09:54:02.125Z,17.47
2023-03-24T09:56:51.740Z,17.50
2023-03-24T09:59:41.088Z,17.77
2023-03-24T10:02:30.447Z,18.20
2023-03-24T10:05:22.091Z,18.13
2023-03-24T10:08:16.949Z,18.42
2023-03-24T10:11:06.012Z,18.39
2023-03-24T10:14:05.895Z,18.54
2023-03-24T10:17:00.475Z,18.31
2023-03-24T10:19:59.316Z,18.78
2023-03-24T10:22:56.229Z,18.93
2023-03-24T10:25:51.280Z,18.66
2023-03-24T10:28:45.627Z,18.61
2023-03-24T10:31:34.583Z,18.52
2023-03-24T10:34:33.012Z,18.60
2023-03-24T10:37:20.757Z,18.47
2023-03-24T10:40:18.111Z,18.66
2023-03-24T10:43:09.747Z,18.80
2023-03-24T10:45:59.294Z,18.59
2023-03-24T10:48:47.750Z,19.32
2023-03-24T10:51:35.595Z,19.22
2023-03-24T10:54:23.932Z,18.87
2023-03-24T10:57:19.292Z,18.95
2023-03-24T11:00:13.272Z,18.78
2023-03-24T11:03:02.670Z,18.47
2023-03-24T11:05:49.801Z,18.29
2023-03-24T11:08:38.581Z,18.41
2023-03-24T11:11:32.134Z,18.18
2023-03-24T11:14:25.649Z,18.60
2023-03-24T11:17:15.367Z,18.59
2023-03-24T11:20:02.073Z,18.75
2023-03-24T11:23:04.954Z,18.82
2023-03-24T11:26:03.239Z,18.89
2023-03-24T11:28:53.917Z,18.66
2023-03-24T11:31:42.652Z,18.82
2023-03-24T11:34:34.232Z,18.90
2023-03-24T11:37:23.855Z,18.94
2023-03-24T11:40:24.580Z,19.05
2023-03-24T11:43:21.937Z,19.38
2023-03-24T11:46:14.187Z,19.50
2023-03-24T11:49:02.509Z,19.81
2023-03-24T11:51:53.070Z,19.91
2023-03-24T11:54:40.183Z,20.14
2023-03-24T11:57:47.697Z,20.06
2023-03-24T12:00:39.397Z,20.41
2023-03-24T12:04:00.097Z,20.38
2023-03-24T12:07:01.424Z,19.70
2023-03-24T12:09:57.529Z,19.59
2023-03-24T12:12:52.930Z,19.78
2023-03-24T12:15:54.695Z,19.69
2023-03-24T12:19:06.835Z,19.92
2023-03-24T12:22:07.726Z,19.58
2023-03-24T12:25:09.963Z,18.96
2023-03-24T12:28:08.411Z,19.05
2023-03-24T12:31:06.295Z,19.18
2023-03-24T12:34:04.427Z,19.10
2023-03-24T12:37:01.865Z,19.14
2023-03-24T12:39:58.500Z,19.21
2023-03-24T12:42:46.569Z,19.39
2023-03-24T12:45:42.881Z,19.10
2023-03-24T12:49:00.025Z,19.18
2023-03-24T12:51:55.163Z,18.91
2023-03-24T12:54:53.259Z,18.89
2023-03-24T12:57:47.189Z,18.89
2023-03-24T13:00:37.786Z,18.99
2023-03-24T13:03:31.312Z,19.08
2023-03-24T13:06:24.674Z,18.76
2023-03-24T13:09:20.293Z,18.41
2023-03-24T13:12:14.569Z,18.66
2023-03-24T13:15:08.330Z,18.23
2023-03-24T13:18:06.319Z,18.30
2023-03-24T13:20:57.417Z,18.31
2023-03-24T13:23:51.778Z,18.51
2023-03-24T13:26:40.490Z,18.45
2023-03-24T13:29:49.863Z,18.34
2023-03-24T13:32:42.782Z,17.75
2023-03-24T13:35:42.325Z,17.66
2023-03-24T13:38:36.945Z,17.68
2023-03-24T13:41:27.225Z,17.41
2023-03-24T13:44:20.447Z,17.62
2023-03-24T13:47:13.205Z,17.71
2023-03-24T13:50:02.575Z,17.82
2023-03-24T13:52:51.194Z,17.86
2023-03-24T13:55:41.012Z,17.91
2023-03-24T13:58:45.166Z,17.94
2023-03-24T14:01:34.977Z,17.86
2023-03-24T14:04:29.815Z,17.83
2023-03-24T14:07:33.229Z,17.74
2023-03-24T14:10:41.670Z,17.78
2023-03-24T14:13:48.808Z,17.47
2023-03-24T14:16:44.087Z,17.49
2023-03-24T14:19:39.080Z,17.20
2023-03-24T14:22:30.963Z,16.89
2023-03-24T14:25:25.941Z,17.14
2023-03-24T14:28:22.559Z,17.14
2023-03-24T14:31:18.601Z,17.34
2023-03-24T14:34:10.963Z,17.15
2023-03-24T14:37:03.788Z,17.10
2023-03-24T14:39:52.211Z,17.15
2023-03-24T14:43:03.239Z,17.44
2023-03-24T14:45:58.466Z,17.49
2023-03-24T14:48:56.771Z,17.63
2023-03-24T14:51:48.142Z,17.63
2023-03-24T14:54:42.158Z,17.68
2023-03-24T14:57:30.778Z,17.55
2023-03-24T15:00:22.265Z,17.60
2023-03-24T15:03:20.021Z,17.67
2023-03-24T15:06:14.877Z,17.48
2023-03-24T15:09:06.724Z,17.71
2023-03-24T15:11:54.911Z,17.56
2023-03-24T15:14:41.333Z,17.81
2023-03-24T15:17:28.306Z,17.79
2023-03-24T15:20:27.624Z,17.45
2023-03-24T15:23:19.236Z,17.60
2023-03-24T15:26:13.598Z,17.77
2023-03-24T15:29:04.034Z,17.75
2023-03-24T15:31:51.387Z,17.74
2023-03-24T15:34:42.055Z,17.68
2023-03-24T15:37:35.613Z,17.68
2023-03-24T15:40:36.478Z,17.73
2023-03-24T15:43:23.351Z,17.62
2023-03-24T15:46:24.738Z,17.90
2023-03-24T15:49:22.632Z,18.00
2023-03-24T15:52:25.542Z,17.86
2023-03-24T15:55:25.130Z,17.88
2023-03-24T15:58:24.356Z,17.96
2023-03-24T16:01:14.253Z,17.57
2023-03-24T16:04:03.511Z,17.54
2023-03-24T16:06:53.841Z,17.38
2023-03-24T16:09:41.151Z,17.29
2023-03-24T16:12:27.559Z,17.18
2023-03-24T16:15:14.596Z,17.13
2023-03-24T16:18:01.302Z,16.95
2023-03-24T16:20:51.862Z,16.97
2023-03-24T16:23:38.440Z,17.07
2023-03-24T16:26:27.090Z,17.14
2023-03-24T16:29:17.310Z,17.15
2023-03-24T16:32:04.197Z,17.26
2023-03-24T16:34:51.082Z,17.12
2023-03-24T16:37:39.293Z,16.93
2023-03-24T16:40:32.220Z,16.89
2023-03-24T16:43:19.787Z,16.97
2023-03-24T16:46:07.232Z,16.76
2023-03-24T16:48:54.665Z,16.77
2023-03-24T16:51:41.776Z,16.68
2023-03-24T16:54:30.102Z,16.54
2023-03-24T16:57:16.883Z,16.29
2023-03-24T17:00:11.039Z,16.28
2023-03-24T17:02:59.786Z,16.22
2023-03-24T17:05:48.623Z,15.99
2023-03-24T17:08:35.515Z,15.91
2023-03-24T17:11:28.322Z,15.93
2023-03-24T17:14:15.556Z,15.72
2023-03-24T17:17:04.475Z,15.67
2023-03-24T17:19:51.849Z,15.45
2023-03-24T17:22:38.714Z,15.32
2023-03-24T17:25:29.295Z,15.09
2023-03-24T17:28:17.928Z,14.90
2023-03-24T17:31:04.915Z,14.77
2023-03-24T17:33:51.552Z,14.71
2023-03-24T17:36:38.277Z,14.63
2023-03-24T17:39:25.269Z,14.29
2023-03-24T17:42:12.044Z,14.47
2023-03-24T17:45:00.160Z,14.39
2023-03-24T17:47:47.558Z,14.42
2023-03-24T17:50:34.578Z,14.11
2023-03-24T17:53:25.708Z,14.19
2023-03-24T17:56:12.712Z,14.09
2023-03-24T17:58:59.794Z,14.17
2023-03-24T18:01:48.101Z,14.13
2023-03-24T18:04:35.389Z,14.11
2023-03-24T18:07:23.150Z,13.99
2023-03-24T18:10:10.898Z,13.94
2023-03-24T18:12:57.705Z,13.84
2023-03-24T18:15:44.691Z,13.80
2023-03-24T18:18:32.843Z,13.74
2023-03-24T18:21:21.180Z,13.76
2023-03-24T18:24:08.919Z,13.74
2023-03-24T18:26:55.757Z,13.81
2023-03-24T18:29:42.462Z,13.71
2023-03-24T18:32:29.334Z,13.68
2023-03-24T18:35:17.565Z,13.72
2023-03-24T18:38:04.341Z,13.71
2023-03-24T18:40:58.823Z,13.82
2023-03-24T18:43:47.880Z,13.82
2023-03-24T18:46:35.536Z,13.74
2023-03-24T18:49:22.056Z,13.60
2023-03-24T18:52:10.307Z,13.62
2023-03-24T18:54:57.183Z,13.49
2023-03-24T18:57:44.134Z,13.37
2023-03-24T19:00:31.052Z,13.30
2023-03-24T19:03:18.638Z,13.41
2023-03-24T19:06:07.417Z,13.33
2023-03-24T19:08:55.321Z,13.24
2023-03-24T19:11:43.531Z,13.16
2023-03-24T19:14:30.163Z,13.04
2023-03-24T19:17:16.944Z,12.98
2023-03-24T19:20:07.639Z,13.21
2023-03-24T19:23:01.208Z,13.21
2023-03-24T19:25:50.253Z,13.10
2023-03-24T19:28:37.696Z,13.15
2023-03-24T19:31:24.263Z,13.45
2023-03-24T19:34:11.054Z,13.61
2023-03-24T19:36:58.376Z,13.71
2023-03-24T19:39:46.269Z,13.81
2023-03-24T19:42:34.219Z,14.03
2023-03-24T19:45:21.751Z,14.05
2023-03-24T19:48:08.475Z,14.12
2023-03-24T19:50:56.353Z,14.04
2023-03-24T19:53:42.868Z,14.17
2023-03-24T19:56:29.611Z,14.25
2023-03-24T19:59:17.638Z,14.26
2023-03-24T20:02:04.275Z,14.03
2023-03-24T20:04:52.068Z,13.86
2023-03-24T20:07:38.617Z,13.58
2023-03-24T20:10:26.227Z,13.44
2023-03-24T20:13:12.857Z,13.29
2023-03-24T20:16:01.902Z,13.33
2023-03-24T20:18:48.643Z,13.27
2023-03-24T20:21:35.417Z,13.08
2023-03-24T20:24:22.445Z,12.96
2023-03-24T20:27:09.417Z,12.71
2023-03-24T20:29:56.030Z,12.68
2023-03-24T20:32:44.433Z,12.63
2023-03-24T20:35:48.068Z,12.72
2023-03-24T20:38:35.096Z,12.82
2023-03-24T20:41:22.079Z,12.75
2023-03-24T20:44:09.567Z,12.66
2023-03-24T20:46:57.265Z,12.76
2023-03-24T20:49:45.564Z,12.66
2023-03-24T20:52:32.796Z,12.63
2023-03-24T20:55:19.491Z,12.64
2023-03-24T20:58:08.315Z,12.57
2023-03-24T21:00:55.439Z,12.38
2023-03-24T21:03:42.094Z,12.54
2023-03-24T21:06:33.814Z,12.62
2023-03-24T21:09:23.053Z,12.67
2023-03-24T21:12:13.010Z,12.53
2023-03-24T21:15:05.748Z,12.57
2023-03-24T21:17:53.438Z,12.61
2023-03-24T21:20:42.432Z,12.55
2023-03-24T21:23:34.376Z,12.49
2023-03-24T21:26:21.326Z,12.44
2023-03-24T21:29:08.182Z,12.52
2023-03-24T21:31:55.135Z,12.47
2023-03-24T21:34:42.871Z,12.46
2023-03-24T21:37:30.234Z,12.42
2023-03-24T21:40:20.284Z,12.40
2023-03-24T21:43:06.795Z,12.38
2023-03-24T21:45:54.905Z,12.30
2023-03-24T21:48:51.472Z,11.96
2023-03-24T21:51:38.331Z,12.19
2023-03-24T21:54:26.886Z,12.27
2023-03-24T21:57:15.157Z,12.18
2023-03-24T22:00:09.840Z,12.16
2023-03-24T22:03:02.376Z,12.17
2023-03-24T22:05:49.814Z,12.04
2023-03-24T22:08:36.607Z,12.20
2023-03-24T22:11:24.994Z,12.23
2023-03-24T22:14:13.157Z,12.06
2023-03-24T22:17:01.781Z,12.19
2023-03-24T22:19:48.344Z,12.23
2023-03-24T22:22:42.867Z,12.19
2023-03-24T22:25:30.788Z,12.26
2023-03-24T22:28:19.039Z,12.27
2023-03-24T22:31:09.030Z,12.25
2023-03-24T22:33:56.385Z,12.21
2023-03-24T22:36:43.394Z,12.20
2023-03-24T22:39:30.398Z,12.09
2023-03-24T22:42:17.366Z,11.96
2023-03-24T22:45:04.221Z,11.94
2023-03-24T22:47:56.469Z,11.88
2023-03-24T22:50:43.139Z,11.86
2023-03-24T22:53:29.801Z,11.75
2023-03-24T22:56:17.013Z,11.62
2023-03-24T22:59:04.169Z,11.61
2023-03-24T23:02:02.430Z,11.48
2023-03-24T23:04:56.619Z,11.39
2023-03-24T23:07:44.189Z,11.43
2023-03-24T23:10:30.803Z,11.37
2023-03-24T23:13:17.907Z,11.37
2023-03-24T23:16:04.655Z,11.32
2023-03-24T23:18:51.752Z,11.31
2023-03-24T23:21:39.792Z,11.18
2023-03-24T23:24:26.736Z,11.19
2023-03-24T23:27:13.196Z,11.10
2023-03-24T23:29:59.908Z,10.78
2023-03-24T23:32:47.336Z,11.06
2023-03-24T23:35:34.283Z,11.00
2023-03-24T23:38:22.469Z,11.09
2023-03-24T23:41:09.846Z,11.03
2023-03-24T23:43:56.510Z,11.00
2023-03-24T23:46:43.342Z,11.09
2023-03-24T23:49:30.023Z,11.12
2023-03-24T23:52:17.098Z,11.06
2023-03-24T23:55:05.804Z,10.96
2023-03-24T23:57:52.595Z,11.06
